Terminal Aerodrome Forecast
Issued by NWS Missoula, MT

Home | Current Version | Previous Version | Text Only | Print | Product List | Glossary On
Versions: 1 2 3 4 5 6 7 8 9 10 11 12 13 14 15 16
000
FTUS45 KMSO 181429 AAA
TAFGPI
TAF AMD
KGPI 181429Z 1814/1912 00000KT 5SM BR VCSH SCT015 OVC035
      TEMPO 1815/1818 18004KT 2SM -SN BKN015 OVC035=

USA.gov is the U.S. government's official web portal to all federal, state and local government web resources and services.